createdAt,value
2022-08-11T00:00:19.434Z,4.60
2022-08-11T00:03:08.817Z,4.10
2022-08-11T00:05:53.342Z,3.90
2022-08-11T00:08:27.379Z,4.50
2022-08-11T00:11:00.167Z,4.20
2022-08-11T00:13:45.465Z,4.30
2022-08-11T00:16:22.856Z,4.30
2022-08-11T00:18:54.487Z,4.50
2022-08-11T00:22:03.107Z,4.80
2022-08-11T00:24:18.632Z,3.90
2022-08-11T00:26:52.424Z,4.50
2022-08-11T00:29:23.050Z,5.40
2022-08-11T00:31:53.549Z,5.30
2022-08-11T00:34:28.299Z,5.40
2022-08-11T00:37:03.361Z,4.30
2022-08-11T00:39:42.352Z,4.10
2022-08-11T00:42:42.105Z,4.60
2022-08-11T00:45:29.020Z,5.10
2022-08-11T00:48:06.096Z,6.60
2022-08-11T00:50:54.735Z,6.90
2022-08-11T00:53:34.057Z,5.90
2022-08-11T00:56:39.917Z,5.50
2022-08-11T00:59:47.217Z,4.60
2022-08-11T01:02:43.155Z,4.90
2022-08-11T01:05:40.404Z,5.60
2022-08-11T01:08:44.824Z,5.60
2022-08-11T01:11:38.420Z,6.00
2022-08-11T01:15:17.076Z,4.90
2022-08-11T01:18:32.050Z,5.00
2022-08-11T01:21:22.400Z,4.50
2022-08-11T01:24:32.152Z,4.60
2022-08-11T01:27:18.782Z,4.80
2022-08-11T01:30:09.022Z,5.10
2022-08-11T01:32:57.058Z,5.20
2022-08-11T01:36:02.027Z,5.30
2022-08-11T01:38:48.928Z,5.60
2022-08-11T01:41:25.991Z,5.50
2022-08-11T01:44:39.156Z,5.00
2022-08-11T01:47:38.214Z,4.80
2022-08-11T01:50:42.881Z,5.40
2022-08-11T01:53:47.739Z,4.70
2022-08-11T01:59:17.461Z,4.90
2022-08-11T02:02:10.180Z,5.30
2022-08-11T02:05:08.045Z,6.10
2022-08-11T02:07:55.625Z,4.50
2022-08-11T02:11:12.717Z,4.30
2022-08-11T02:13:52.291Z,5.00
2022-08-11T02:16:38.345Z,4.50
2022-08-11T02:19:42.535Z,4.00
2022-08-11T02:22:38.318Z,4.70
2022-08-11T02:25:12.633Z,5.10
2022-08-11T02:27:54.275Z,5.40
2022-08-11T02:30:27.936Z,4.50
2022-08-11T02:33:27.690Z,4.70
2022-08-11T02:36:06.542Z,4.70
2022-08-11T02:39:01.437Z,4.20
2022-08-11T02:42:01.851Z,3.80
2022-08-11T02:44:45.282Z,4.40
2022-08-11T02:48:11.102Z,3.50
2022-08-11T02:51:15.333Z,4.30
2022-08-11T02:54:25.526Z,4.40
2022-08-11T02:57:15.755Z,4.20
2022-08-11T02:59:57.255Z,4.20
2022-08-11T03:02:49.601Z,4.20
2022-08-11T03:05:26.526Z,6.10
2022-08-11T03:08:10.161Z,7.50
2022-08-11T03:11:35.236Z,6.20
2022-08-11T03:14:39.502Z,4.40
2022-08-11T03:17:24.394Z,4.60
2022-08-11T03:20:33.385Z,4.70
2022-08-11T03:23:23.938Z,5.10
2022-08-11T03:26:06.888Z,4.90
2022-08-11T03:29:06.211Z,3.90
2022-08-11T03:31:49.746Z,4.70
2022-08-11T03:34:25.305Z,5.00
2022-08-11T03:37:50.742Z,4.60
2022-08-11T03:40:41.561Z,5.90
2022-08-11T03:43:29.257Z,5.30
2022-08-11T03:46:16.968Z,5.00
2022-08-11T03:49:21.264Z,5.00
2022-08-11T03:52:15.450Z,5.30
2022-08-11T03:54:51.396Z,4.90
2022-08-11T03:57:59.992Z,6.40
2022-08-11T04:00:49.758Z,10.60
2022-08-11T04:03:48.651Z,6.90
2022-08-11T04:06:47.776Z,9.10
2022-08-11T04:09:47.760Z,5.80
2022-08-11T04:12:36.507Z,6.10
2022-08-11T04:15:55.789Z,7.80
2022-08-11T04:19:04.729Z,5.70
2022-08-11T04:21:35.741Z,4.30
2022-08-11T04:24:39.741Z,4.70
2022-08-11T04:27:19.263Z,5.70
2022-08-11T04:30:17.763Z,4.80
2022-08-11T04:33:35.241Z,4.90
2022-08-11T04:36:18.691Z,4.80
2022-08-11T04:39:05.484Z,4.70
2022-08-11T04:42:10.071Z,4.70
2022-08-11T04:45:26.472Z,4.40
2022-08-11T04:48:44.468Z,4.80
2022-08-11T04:52:36.078Z,4.20
2022-08-11T04:55:59.772Z,3.80
2022-08-11T04:58:52.728Z,3.80
2022-08-11T05:01:42.179Z,4.50
2022-08-11T05:04:39.443Z,4.20
2022-08-11T05:07:21.799Z,3.90
2022-08-11T05:10:02.680Z,3.80
2022-08-11T05:12:47.417Z,4.60
2022-08-11T05:16:18.719Z,4.30
2022-08-11T05:19:12.573Z,4.30
2022-08-11T05:22:24.878Z,4.30
2022-08-11T05:26:43.343Z,4.10
2022-08-11T05:28:57.302Z,3.70
2022-08-11T05:42:29.489Z,3.80
2022-08-11T05:45:24.556Z,3.80
2022-08-11T05:49:31.879Z,3.50
2022-08-11T06:11:58.969Z,3.80
2022-08-11T06:14:28.024Z,3.40
2022-08-11T06:46:40.733Z,3.00
2022-08-11T07:05:07.075Z,3.60
2022-08-11T07:09:38.188Z,2.20
2022-08-11T07:12:56.327Z,2.60
2022-08-11T07:16:11.281Z,2.50
2022-08-11T07:20:16.989Z,2.40
2022-08-11T07:24:58.504Z,2.50
2022-08-11T07:27:38.720Z,2.20
2022-08-11T07:30:27.070Z,2.80
2022-08-11T07:33:08.280Z,2.20
2022-08-11T07:39:57.704Z,1.80
2022-08-11T07:42:36.712Z,2.30
2022-08-11T07:45:31.698Z,2.00
2022-08-11T07:48:56.158Z,2.10
2022-08-11T07:51:43.416Z,3.20
2022-08-11T07:54:17.454Z,3.10
2022-08-11T07:57:07.569Z,2.00
2022-08-11T08:00:03.330Z,2.00
2022-08-11T08:03:30.642Z,1.90
2022-08-11T08:06:35.706Z,1.90
2022-08-11T08:09:29.153Z,2.30
2022-08-11T08:12:22.977Z,1.70
2022-08-11T08:15:19.764Z,1.50
2022-08-11T08:18:09.443Z,2.10
2022-08-11T08:20:52.483Z,1.90
2022-08-11T08:23:34.160Z,1.60
2022-08-11T08:26:40.109Z,1.70
2022-08-11T08:29:32.035Z,1.50
2022-08-11T08:32:03.059Z,2.30
2022-08-11T08:34:33.591Z,1.80
2022-08-11T08:37:15.780Z,3.50
2022-08-11T08:39:56.182Z,2.20
2022-08-11T08:42:35.719Z,3.30
2022-08-11T08:45:12.600Z,2.00
2022-08-11T08:47:59.844Z,2.20
2022-08-11T08:51:08.119Z,1.80
2022-08-11T08:53:51.757Z,1.60
2022-08-11T08:56:31.838Z,2.50
2022-08-11T08:59:02.589Z,2.40
2022-08-11T09:01:43.426Z,1.50
2022-08-11T09:04:24.793Z,1.80
2022-08-11T09:06:55.959Z,1.70
2022-08-11T09:09:33.962Z,1.70
2022-08-11T09:15:01.504Z,1.30
2022-08-11T09:17:42.049Z,1.60
2022-08-11T09:20:22.613Z,1.80
2022-08-11T09:26:56.000Z,1.50
2022-08-11T09:29:32.928Z,1.40
2022-08-11T09:32:29.983Z,1.80
2022-08-11T09:35:10.083Z,1.60
2022-08-11T09:38:14.247Z,1.40
2022-08-11T09:40:59.721Z,1.20
2022-08-11T09:43:54.167Z,1.70
2022-08-11T09:46:35.704Z,1.60
2022-08-11T09:49:24.812Z,1.30
2022-08-11T09:52:06.035Z,1.50
2022-08-11T09:58:04.380Z,1.60
2022-08-11T10:00:52.639Z,1.60
2022-08-11T10:03:43.393Z,1.60
2022-08-11T10:06:43.263Z,1.50
2022-08-11T10:15:59.974Z,1.70
2022-08-11T10:18:59.133Z,1.40
2022-08-11T10:22:26.986Z,1.50
2022-08-11T10:25:24.214Z,1.30
2022-08-11T10:28:30.372Z,1.80
2022-08-11T10:35:07.597Z,1.40
2022-08-11T10:42:30.226Z,1.60
2022-08-11T10:46:30.650Z,1.50
2022-08-11T10:49:02.457Z,2.00
2022-08-11T10:51:58.665Z,2.20
2022-08-11T10:55:00.908Z,1.60
2022-08-11T10:58:04.222Z,1.30
2022-08-11T11:01:10.828Z,1.10
2022-08-11T11:08:43.103Z,1.50
2022-08-11T11:12:27.710Z,1.40
2022-08-11T11:15:52.283Z,1.10
2022-08-11T11:19:24.798Z,1.20
2022-08-11T11:22:35.871Z,1.00
2022-08-11T11:25:21.281Z,1.60
2022-08-11T11:28:28.087Z,1.40
2022-08-11T11:31:15.770Z,1.20
2022-08-11T11:34:12.943Z,1.10
2022-08-11T11:36:49.338Z,1.10
2022-08-11T11:39:29.577Z,1.20
2022-08-11T11:44:29.492Z,1.10
2022-08-11T11:47:05.770Z,2.40
2022-08-11T11:49:44.019Z,1.20
2022-08-11T11:52:21.282Z,1.40
2022-08-11T11:54:56.554Z,1.30
2022-08-11T11:57:59.428Z,1.00
2022-08-11T12:00:49.547Z,1.50
2022-08-11T12:03:23.746Z,1.20
2022-08-11T12:05:54.436Z,1.30
2022-08-11T12:08:29.664Z,1.50
2022-08-11T12:11:20.496Z,1.40
2022-08-11T12:14:02.620Z,1.10
2022-08-11T12:16:36.992Z,1.40
2022-08-11T12:19:35.932Z,1.40
2022-08-11T12:22:29.249Z,1.40
2022-08-11T12:25:26.485Z,1.20
2022-08-11T12:27:56.265Z,0.80
2022-08-11T12:30:25.040Z,1.10
2022-08-11T12:32:53.830Z,1.00
2022-08-11T12:35:22.583Z,1.80
2022-08-11T12:38:09.540Z,1.30
2022-08-11T12:44:06.551Z,0.90
2022-08-11T12:46:39.919Z,1.20
2022-08-11T12:49:37.551Z,2.50
2022-08-11T12:52:20.931Z,1.10
2022-08-11T12:54:56.480Z,1.30
2022-08-11T12:57:58.898Z,1.40
2022-08-11T13:00:48.811Z,1.40
2022-08-11T13:03:39.901Z,2.10
2022-08-11T13:06:08.771Z,1.70
2022-08-11T13:08:41.136Z,1.20
2022-08-11T13:11:55.840Z,2.00
2022-08-11T13:14:18.243Z,1.20
2022-08-11T13:17:05.773Z,1.10
2022-08-11T13:19:36.876Z,1.30
2022-08-11T13:22:07.419Z,2.20
2022-08-11T13:24:37.032Z,1.30
2022-08-11T13:27:15.206Z,0.90
2022-08-11T13:29:46.696Z,1.00
2022-08-11T13:32:16.504Z,1.40
2022-08-11T13:34:45.512Z,1.20
2022-08-11T13:37:15.386Z,0.90
2022-08-11T13:39:48.323Z,1.30
2022-08-11T13:42:18.187Z,2.50
2022-08-11T13:44:47.392Z,1.20
2022-08-11T13:47:16.389Z,2.10
2022-08-11T13:49:45.008Z,1.50
2022-08-11T13:52:16.935Z,1.40
2022-08-11T13:54:48.282Z,2.00
2022-08-11T13:58:06.575Z,1.10
2022-08-11T14:00:25.112Z,1.70
2022-08-11T14:02:57.941Z,1.50
2022-08-11T14:05:31.547Z,4.30
2022-08-11T14:08:07.814Z,1.20
2022-08-11T14:10:38.738Z,2.80
2022-08-11T14:13:42.370Z,1.50
2022-08-11T14:16:25.228Z,2.70
2022-08-11T14:18:57.815Z,6.20
2022-08-11T14:21:47.243Z,2.10
2022-08-11T14:24:24.111Z,7.80
2022-08-11T14:26:54.096Z,1.60
2022-08-11T14:29:25.439Z,1.30
2022-08-11T14:32:02.782Z,1.50
2022-08-11T14:34:34.681Z,1.10
2022-08-11T14:37:06.821Z,2.10
2022-08-11T14:39:41.371Z,2.30
2022-08-11T14:42:32.641Z,1.50
2022-08-11T14:45:25.935Z,1.20
2022-08-11T14:48:14.451Z,1.40
2022-08-11T14:50:42.634Z,1.20
2022-08-11T14:53:12.918Z,1.20
2022-08-11T14:56:05.094Z,1.60
2022-08-11T14:58:36.294Z,1.50
2022-08-11T15:01:27.965Z,1.60
2022-08-11T15:04:22.410Z,1.90
2022-08-11T15:06:54.900Z,1.50
2022-08-11T15:09:26.981Z,1.80
2022-08-11T15:12:32.325Z,3.20
2022-08-11T15:15:17.477Z,2.10
2022-08-11T15:17:49.399Z,1.40
2022-08-11T15:20:39.392Z,1.70
2022-08-11T15:23:26.147Z,2.60
2022-08-11T15:26:18.664Z,2.10
2022-08-11T15:29:07.974Z,2.00
2022-08-11T15:31:57.881Z,1.70
2022-08-11T15:34:48.130Z,1.70
2022-08-11T15:37:28.040Z,2.00
2022-08-11T15:40:34.709Z,1.60
2022-08-11T15:43:33.219Z,2.30
2022-08-11T15:46:06.855Z,3.40
2022-08-11T15:49:07.298Z,1.80
2022-08-11T15:51:48.224Z,1.50
2022-08-11T15:54:20.571Z,2.20
2022-08-11T15:56:50.523Z,1.70
2022-08-11T15:59:42.367Z,1.50
2022-08-11T16:02:34.226Z,1.20
2022-08-11T16:05:08.585Z,2.10
2022-08-11T16:07:40.398Z,2.40
2022-08-11T16:10:23.566Z,2.80
2022-08-11T16:13:05.720Z,3.20
2022-08-11T16:15:56.217Z,3.90
2022-08-11T16:18:44.677Z,3.90
2022-08-11T16:21:33.568Z,4.90
2022-08-11T16:24:06.913Z,2.70
2022-08-11T16:27:10.129Z,4.70
2022-08-11T16:29:37.231Z,4.60
2022-08-11T16:32:33.375Z,5.60
2022-08-11T16:35:25.287Z,5.60
2022-08-11T16:38:13.955Z,10.10
2022-08-11T16:40:44.049Z,5.50
2022-08-11T16:43:34.560Z,5.00
2022-08-11T16:46:24.834Z,5.90
2022-08-11T16:48:55.414Z,3.80
2022-08-11T16:51:23.769Z,3.10
2022-08-11T16:54:05.389Z,3.20
2022-08-11T16:56:44.890Z,2.80
2022-08-11T16:59:22.542Z,2.70
2022-08-11T17:01:58.148Z,4.50
2022-08-11T17:04:58.668Z,3.50
2022-08-11T17:07:48.442Z,2.80
2022-08-11T17:10:52.918Z,1.80
2022-08-11T17:13:29.516Z,2.20
2022-08-11T17:16:07.594Z,2.20
2022-08-11T17:18:57.007Z,3.00
2022-08-11T17:21:34.155Z,2.70
2022-08-11T17:24:09.468Z,2.90
2022-08-11T17:26:57.774Z,2.70
2022-08-11T17:29:34.246Z,4.00
2022-08-11T17:32:56.792Z,3.60
2022-08-11T17:35:38.031Z,2.80
2022-08-11T17:39:01.958Z,7.80
2022-08-11T17:42:02.220Z,4.50
2022-08-11T17:45:29.895Z,6.10
2022-08-11T17:48:21.209Z,6.70
2022-08-11T17:50:51.199Z,9.10
2022-08-11T17:53:39.014Z,6.40
2022-08-11T17:56:35.087Z,8.50
2022-08-11T17:59:23.914Z,12.10
2022-08-11T18:02:34.522Z,20.10
2022-08-11T18:05:12.786Z,71.40
2022-08-11T18:08:04.344Z,116.20
2022-08-11T18:11:05.137Z,34.30
2022-08-11T18:14:08.313Z,18.20
2022-08-11T18:16:55.454Z,16.40
2022-08-11T18:19:42.121Z,17.00
2022-08-11T18:22:36.326Z,14.00
2022-08-11T18:28:23.964Z,14.00
2022-08-11T18:31:19.062Z,11.20
2022-08-11T18:34:12.893Z,9.80
2022-08-11T18:37:21.980Z,8.40
2022-08-11T18:40:17.857Z,5.70
2022-08-11T18:43:07.562Z,7.80
2022-08-11T18:46:06.989Z,5.80
2022-08-11T18:48:57.635Z,7.20
2022-08-11T18:51:48.487Z,5.20
2022-08-11T18:54:37.461Z,4.30
2022-08-11T18:57:27.094Z,2.80
2022-08-11T19:00:21.472Z,2.60
2022-08-11T19:03:15.023Z,3.80
2022-08-11T19:06:31.771Z,4.50
2022-08-11T19:09:18.008Z,2.80
2022-08-11T19:12:06.162Z,3.90
2022-08-11T19:14:54.484Z,3.30
2022-08-11T19:17:46.017Z,3.30
2022-08-11T19:20:39.692Z,7.70
2022-08-11T19:23:29.767Z,6.80
2022-08-11T19:26:19.397Z,5.10
2022-08-11T19:30:11.866Z,4.90
2022-08-11T19:35:09.843Z,4.50
2022-08-11T19:37:58.513Z,6.00
2022-08-11T19:40:46.967Z,6.60
2022-08-11T19:44:01.409Z,6.90
2022-08-11T19:46:55.604Z,5.20
2022-08-11T19:49:43.951Z,5.60
2022-08-11T19:52:31.393Z,5.10
2022-08-11T19:55:20.911Z,14.20
2022-08-11T19:58:09.142Z,12.90
2022-08-11T20:00:56.445Z,10.60
2022-08-11T20:03:43.234Z,9.50
2022-08-11T20:06:33.050Z,9.20
2022-08-11T20:09:21.249Z,8.50
2022-08-11T20:12:12.078Z,8.70
2022-08-11T20:15:01.803Z,6.80
2022-08-11T20:17:52.625Z,6.80
2022-08-11T20:20:41.812Z,7.00
2022-08-11T20:23:36.275Z,9.10
2022-08-11T20:26:31.280Z,9.10
2022-08-11T20:29:19.651Z,6.40
2022-08-11T20:32:09.841Z,7.70
2022-08-11T20:34:59.258Z,7.40
2022-08-11T20:37:51.298Z,7.50
2022-08-11T20:40:44.093Z,5.00
2022-08-11T20:44:06.180Z,4.30
2022-08-11T20:46:43.873Z,3.70
2022-08-11T20:49:41.307Z,2.60
2022-08-11T20:52:37.316Z,2.90
2022-08-11T20:55:46.292Z,14.80
2022-08-11T20:59:13.355Z,3.00
2022-08-11T21:01:51.981Z,8.20
2022-08-11T21:07:57.175Z,4.50
2022-08-11T21:10:58.969Z,5.00
2022-08-11T21:13:59.510Z,9.00
2022-08-11T21:16:52.828Z,22.20
2022-08-11T21:20:06.563Z,4.90
2022-08-11T21:23:06.698Z,4.10
2022-08-11T21:26:02.049Z,3.30
2022-08-11T21:28:58.224Z,4.80
2022-08-11T21:31:58.126Z,6.20
2022-08-11T21:34:50.013Z,4.50
2022-08-11T21:37:37.620Z,4.40
2022-08-11T21:40:27.612Z,5.30
2022-08-11T21:43:17.821Z,7.20
2022-08-11T21:46:07.602Z,6.40
2022-08-11T21:48:56.761Z,5.50
2022-08-11T21:51:44.627Z,3.50
2022-08-11T21:54:34.913Z,3.40
2022-08-11T21:57:23.667Z,4.60
2022-08-11T22:00:13.717Z,3.40
2022-08-11T22:03:06.498Z,3.20
2022-08-11T22:05:56.594Z,2.80
2022-08-11T22:08:43.517Z,2.00
2022-08-11T22:11:32.270Z,2.60
2022-08-11T22:14:23.677Z,2.20
2022-08-11T22:17:10.489Z,2.20
2022-08-11T22:20:00.453Z,2.30
2022-08-11T22:22:52.998Z,3.10
2022-08-11T22:25:51.015Z,2.60
2022-08-11T22:28:42.030Z,2.80
2022-08-11T22:31:30.241Z,2.70
2022-08-11T22:34:17.578Z,2.50
2022-08-11T22:37:11.619Z,3.00
2022-08-11T22:40:20.916Z,2.90
2022-08-11T22:43:14.670Z,2.80
2022-08-11T22:46:05.380Z,2.00
2022-08-11T22:48:54.641Z,2.50
2022-08-11T22:51:42.974Z,2.50
2022-08-11T22:54:30.858Z,2.60
2022-08-11T22:57:18.473Z,3.10
2022-08-11T23:00:05.150Z,3.30
2022-08-11T23:02:52.410Z,3.10
2022-08-11T23:05:40.372Z,2.70
2022-08-11T23:08:28.031Z,3.00
2022-08-11T23:11:22.091Z,2.50
2022-08-11T23:14:08.798Z,2.70
2022-08-11T23:16:56.074Z,2.40
2022-08-11T23:20:06.846Z,2.40
2022-08-11T23:22:55.136Z,2.30
2022-08-11T23:25:43.121Z,2.80
2022-08-11T23:28:33.648Z,2.50
2022-08-11T23:31:20.725Z,2.50
2022-08-11T23:34:41.712Z,2.80
2022-08-11T23:37:20.093Z,2.80
2022-08-11T23:40:06.946Z,2.50
2022-08-11T23:42:57.749Z,2.70
2022-08-11T23:45:46.118Z,2.50
2022-08-11T23:48:35.328Z,2.60
2022-08-11T23:51:22.432Z,2.50
2022-08-11T23:54:10.047Z,2.40
2022-08-11T23:56:57.382Z,2.80
2022-08-11T23:59:44.027Z,2.40
